Decoded Metar for KLQK ( in ) (IATA:) | Meteo·Mobile Aviation Weather
aviador You're here:

KLQK Decoded Metar

in
Report Time2019-07-16 10:15:00
UTC Time2019-07-16 10:07:06
Flight Rules vfr VFR
WindCalm
Visibility9999 m
Phenomena:N/A
Clouds:N/A
CeilingNone
Temp21°C
Dew Point21°C (100% RH)
QNH1021 hPa
Raw Report
KLQK 161015Z AUTO 00000KT 10SM CLR 21/21 A3014 RMK AO2
T02050205=

Extra information for KLQK:More info

Social comments